sensor_id;sensor_type;location;lat;lon;timestamp;temperature;humidity
23137;DHT22;11737;50.558;7.258;2022-12-07T00:01:36;6.30;99.90
23137;DHT22;11737;50.558;7.258;2022-12-07T00:04:07;6.30;99.90
23137;DHT22;11737;50.558;7.258;2022-12-07T00:06:52;6.20;99.90
23137;DHT22;11737;50.558;7.258;2022-12-07T00:09:19;6.20;99.90
23137;DHT22;11737;50.558;7.258;2022-12-07T00:11:49;6.20;99.90
23137;DHT22;11737;50.558;7.258;2022-12-07T00:17:05;6.30;99.90
23137;DHT22;11737;50.558;7.258;2022-12-07T00:19:33;6.50;99.90
23137;DHT22;11737;50.558;7.258;2022-12-07T00:22:00;6.50;99.90
23137;DHT22;11737;50.558;7.258;2022-12-07T00:24:28;6.40;99.90
23137;DHT22;11737;50.558;7.258;2022-12-07T00:26:55;6.40;99.90
23137;DHT22;11737;50.558;7.258;2022-12-07T00:29:23;6.40;99.90
23137;DHT22;11737;50.558;7.258;2022-12-07T00:31:50;6.40;99.90
23137;DHT22;11737;50.558;7.258;2022-12-07T00:34:20;6.30;99.90
23137;DHT22;11737;50.558;7.258;2022-12-07T00:36:48;6.30;99.90
23137;DHT22;11737;50.558;7.258;2022-12-07T00:39:16;6.30;99.90
23137;DHT22;11737;50.558;7.258;2022-12-07T00:41:43;6.30;99.90
23137;DHT22;11737;50.558;7.258;2022-12-07T00:44:11;6.30;99.90
23137;DHT22;11737;50.558;7.258;2022-12-07T00:46:39;6.40;99.90
23137;DHT22;11737;50.558;7.258;2022-12-07T00:49:06;6.30;99.90
23137;DHT22;11737;50.558;7.258;2022-12-07T00:51:34;6.30;99.90
23137;DHT22;11737;50.558;7.258;2022-12-07T00:54:01;6.30;99.90
23137;DHT22;11737;50.558;7.258;2022-12-07T00:56:29;6.30;99.90
23137;DHT22;11737;50.558;7.258;2022-12-07T00:59:00;6.20;99.90
23137;DHT22;11737;50.558;7.258;2022-12-07T01:01:30;6.20;99.90
23137;DHT22;11737;50.558;7.258;2022-12-07T01:03:59;6.30;99.90
23137;DHT22;11737;50.558;7.258;2022-12-07T01:06:28;6.30;99.90
23137;DHT22;11737;50.558;7.258;2022-12-07T01:08:56;6.40;99.90
23137;DHT22;11737;50.558;7.258;2022-12-07T01:11:26;6.40;99.90
23137;DHT22;11737;50.558;7.258;2022-12-07T01:13:56;6.40;99.90
23137;DHT22;11737;50.558;7.258;2022-12-07T01:16:25;6.40;99.90
23137;DHT22;11737;50.558;7.258;2022-12-07T01:18:54;6.40;99.90
23137;DHT22;11737;50.558;7.258;2022-12-07T01:21:28;6.40;99.90
23137;DHT22;11737;50.558;7.258;2022-12-07T01:23:57;6.40;99.90
23137;DHT22;11737;50.558;7.258;2022-12-07T01:26:25;6.40;99.90
23137;DHT22;11737;50.558;7.258;2022-12-07T01:28:53;6.50;99.90
23137;DHT22;11737;50.558;7.258;2022-12-07T01:31:23;6.50;99.90
23137;DHT22;11737;50.558;7.258;2022-12-07T01:33:57;6.50;99.90
23137;DHT22;11737;50.558;7.258;2022-12-07T01:36:27;6.40;99.90
23137;DHT22;11737;50.558;7.258;2022-12-07T01:39:01;6.40;99.90
23137;DHT22;11737;50.558;7.258;2022-12-07T01:41:31;6.40;99.90
23137;DHT22;11737;50.558;7.258;2022-12-07T01:46:49;6.50;99.90
23137;DHT22;11737;50.558;7.258;2022-12-07T01:49:33;6.40;99.90
23137;DHT22;11737;50.558;7.258;2022-12-07T01:54:33;6.40;99.90
23137;DHT22;11737;50.558;7.258;2022-12-07T01:57:03;6.50;99.90
23137;DHT22;11737;50.558;7.258;2022-12-07T01:59:31;6.50;99.90
23137;DHT22;11737;50.558;7.258;2022-12-07T02:01:59;6.50;99.90
23137;DHT22;11737;50.558;7.258;2022-12-07T02:04:29;6.50;99.90
23137;DHT22;11737;50.558;7.258;2022-12-07T02:06:58;6.50;99.90
23137;DHT22;11737;50.558;7.258;2022-12-07T02:09:25;6.50;99.90
23137;DHT22;11737;50.558;7.258;2022-12-07T02:11:54;6.50;99.90
23137;DHT22;11737;50.558;7.258;2022-12-07T02:14:22;6.60;99.90
23137;DHT22;11737;50.558;7.258;2022-12-07T02:16:58;6.50;99.90
23137;DHT22;11737;50.558;7.258;2022-12-07T02:19:50;6.50;99.90
23137;DHT22;11737;50.558;7.258;2022-12-07T02:30:52;6.60;99.90
23137;DHT22;11737;50.558;7.258;2022-12-07T02:33:29;6.60;99.90
23137;DHT22;11737;50.558;7.258;2022-12-07T02:38:52;6.50;99.90
23137;DHT22;11737;50.558;7.258;2022-12-07T02:41:31;6.50;99.90
23137;DHT22;11737;50.558;7.258;2022-12-07T02:44:04;6.40;99.90
23137;DHT22;11737;50.558;7.258;2022-12-07T02:46:37;6.40;99.90
23137;DHT22;11737;50.558;7.258;2022-12-07T02:49:05;6.40;99.90
23137;DHT22;11737;50.558;7.258;2022-12-07T02:51:38;6.40;99.90
23137;DHT22;11737;50.558;7.258;2022-12-07T02:54:09;6.40;99.90
23137;DHT22;11737;50.558;7.258;2022-12-07T03:13:34;6.40;99.90
23137;DHT22;11737;50.558;7.258;2022-12-07T03:18:35;6.60;99.90
23137;DHT22;11737;50.558;7.258;2022-12-07T03:21:05;6.60;99.90
23137;DHT22;11737;50.558;7.258;2022-12-07T03:23:34;6.60;99.90
23137;DHT22;11737;50.558;7.258;2022-12-07T03:26:05;6.60;99.90
23137;DHT22;11737;50.558;7.258;2022-12-07T03:28:36;6.70;99.90
23137;DHT22;11737;50.558;7.258;2022-12-07T03:31:13;6.70;99.90
23137;DHT22;11737;50.558;7.258;2022-12-07T03:33:44;6.60;99.90
23137;DHT22;11737;50.558;7.258;2022-12-07T03:36:35;6.60;99.90
23137;DHT22;11737;50.558;7.258;2022-12-07T03:41:45;6.80;99.90
23137;DHT22;11737;50.558;7.258;2022-12-07T03:44:14;6.90;99.90
23137;DHT22;11737;50.558;7.258;2022-12-07T03:49:52;6.90;99.90
23137;DHT22;11737;50.558;7.258;2022-12-07T03:52:32;6.90;99.90
23137;DHT22;11737;50.558;7.258;2022-12-07T03:55:06;7.10;99.90
23137;DHT22;11737;50.558;7.258;2022-12-07T03:57:34;7.10;99.90
23137;DHT22;11737;50.558;7.258;2022-12-07T04:00:06;7.30;99.90
23137;DHT22;11737;50.558;7.258;2022-12-07T04:02:34;7.40;99.90
23137;DHT22;11737;50.558;7.258;2022-12-07T04:05:03;7.60;99.90
23137;DHT22;11737;50.558;7.258;2022-12-07T04:07:30;7.60;99.90
23137;DHT22;11737;50.558;7.258;2022-12-07T04:09:58;7.70;99.90
23137;DHT22;11737;50.558;7.258;2022-12-07T04:12:25;7.80;99.90
23137;DHT22;11737;50.558;7.258;2022-12-07T04:14:53;7.80;99.90
23137;DHT22;11737;50.558;7.258;2022-12-07T04:17:20;7.90;99.90
23137;DHT22;11737;50.558;7.258;2022-12-07T04:19:48;8.00;99.90
23137;DHT22;11737;50.558;7.258;2022-12-07T04:22:16;8.00;99.90
23137;DHT22;11737;50.558;7.258;2022-12-07T04:24:44;8.00;99.90
23137;DHT22;11737;50.558;7.258;2022-12-07T04:27:11;8.00;99.90
23137;DHT22;11737;50.558;7.258;2022-12-07T04:29:39;7.90;99.90
23137;DHT22;11737;50.558;7.258;2022-12-07T04:32:06;8.00;99.90
23137;DHT22;11737;50.558;7.258;2022-12-07T04:34:34;7.90;99.90
23137;DHT22;11737;50.558;7.258;2022-12-07T04:37:01;8.00;99.90
23137;DHT22;11737;50.558;7.258;2022-12-07T04:42:17;8.00;99.90
23137;DHT22;11737;50.558;7.258;2022-12-07T04:44:44;7.90;99.90
23137;DHT22;11737;50.558;7.258;2022-12-07T04:47:12;7.90;99.90
23137;DHT22;11737;50.558;7.258;2022-12-07T04:49:39;8.00;99.90
23137;DHT22;11737;50.558;7.258;2022-12-07T04:52:07;7.90;99.90
23137;DHT22;11737;50.558;7.258;2022-12-07T04:54:34;7.80;99.90
23137;DHT22;11737;50.558;7.258;2022-12-07T04:57:02;7.90;99.90
23137;DHT22;11737;50.558;7.258;2022-12-07T04:59:30;7.90;99.90
23137;DHT22;11737;50.558;7.258;2022-12-07T05:01:57;7.90;99.90
23137;DHT22;11737;50.558;7.258;2022-12-07T05:04:25;7.90;99.90
23137;DHT22;11737;50.558;7.258;2022-12-07T05:06:52;8.00;99.90
23137;DHT22;11737;50.558;7.258;2022-12-07T05:09:20;7.90;99.90
23137;DHT22;11737;50.558;7.258;2022-12-07T05:11:47;7.90;99.90
23137;DHT22;11737;50.558;7.258;2022-12-07T05:14:17;7.90;99.90
23137;DHT22;11737;50.558;7.258;2022-12-07T05:16:48;7.90;99.90
23137;DHT22;11737;50.558;7.258;2022-12-07T05:19:16;8.00;99.90
23137;DHT22;11737;50.558;7.258;2022-12-07T05:21:45;8.00;99.90
23137;DHT22;11737;50.558;7.258;2022-12-07T05:24:14;8.00;99.90
23137;DHT22;11737;50.558;7.258;2022-12-07T05:26:42;8.10;99.90
23137;DHT22;11737;50.558;7.258;2022-12-07T05:32:02;8.10;99.90
23137;DHT22;11737;50.558;7.258;2022-12-07T05:34:29;8.00;99.90
23137;DHT22;11737;50.558;7.258;2022-12-07T05:36:57;7.90;99.90
23137;DHT22;11737;50.558;7.258;2022-12-07T05:39:24;7.80;99.90
23137;DHT22;11737;50.558;7.258;2022-12-07T05:41:52;7.70;99.90
23137;DHT22;11737;50.558;7.258;2022-12-07T05:44:38;7.80;99.90
23137;DHT22;11737;50.558;7.258;2022-12-07T05:47:06;7.80;99.90
23137;DHT22;11737;50.558;7.258;2022-12-07T05:49:33;7.90;99.90
23137;DHT22;11737;50.558;7.258;2022-12-07T05:52:02;7.90;99.90
23137;DHT22;11737;50.558;7.258;2022-12-07T05:54:29;7.90;99.90
23137;DHT22;11737;50.558;7.258;2022-12-07T05:56:57;7.90;99.90
23137;DHT22;11737;50.558;7.258;2022-12-07T05:59:25;8.00;99.90
23137;DHT22;11737;50.558;7.258;2022-12-07T06:04:48;8.10;99.90
23137;DHT22;11737;50.558;7.258;2022-12-07T06:07:16;8.20;99.90
23137;DHT22;11737;50.558;7.258;2022-12-07T06:09:44;8.30;99.90
23137;DHT22;11737;50.558;7.258;2022-12-07T06:12:12;8.30;99.90
23137;DHT22;11737;50.558;7.258;2022-12-07T06:14:58;8.40;99.90
23137;DHT22;11737;50.558;7.258;2022-12-07T06:17:26;8.50;99.90
23137;DHT22;11737;50.558;7.258;2022-12-07T06:19:54;8.50;99.90
23137;DHT22;11737;50.558;7.258;2022-12-07T06:22:21;8.50;99.90
23137;DHT22;11737;50.558;7.258;2022-12-07T06:24:49;8.50;99.90
23137;DHT22;11737;50.558;7.258;2022-12-07T06:27:16;8.50;99.90
23137;DHT22;11737;50.558;7.258;2022-12-07T06:29:44;8.50;99.90
23137;DHT22;11737;50.558;7.258;2022-12-07T06:32:11;8.50;99.90
23137;DHT22;11737;50.558;7.258;2022-12-07T06:34:38;8.50;99.90
23137;DHT22;11737;50.558;7.258;2022-12-07T06:37:06;8.40;99.90
23137;DHT22;11737;50.558;7.258;2022-12-07T06:39:34;8.40;99.90
23137;DHT22;11737;50.558;7.258;2022-12-07T06:42:01;8.40;99.90
23137;DHT22;11737;50.558;7.258;2022-12-07T06:44:29;8.30;99.90
23137;DHT22;11737;50.558;7.258;2022-12-07T06:47:15;8.30;99.90
23137;DHT22;11737;50.558;7.258;2022-12-07T06:49:43;8.30;99.90
23137;DHT22;11737;50.558;7.258;2022-12-07T06:52:10;8.30;99.90
23137;DHT22;11737;50.558;7.258;2022-12-07T06:54:38;8.30;99.90
23137;DHT22;11737;50.558;7.258;2022-12-07T06:57:05;8.40;99.90
23137;DHT22;11737;50.558;7.258;2022-12-07T06:59:33;8.50;99.90
23137;DHT22;11737;50.558;7.258;2022-12-07T07:02:00;8.50;99.90
23137;DHT22;11737;50.558;7.258;2022-12-07T07:04:28;8.40;99.90
23137;DHT22;11737;50.558;7.258;2022-12-07T07:06:55;8.30;99.90
23137;DHT22;11737;50.558;7.258;2022-12-07T07:09:23;8.30;99.90
23137;DHT22;11737;50.558;7.258;2022-12-07T07:11:50;8.10;99.90
23137;DHT22;11737;50.558;7.258;2022-12-07T07:14:18;8.00;99.90
23137;DHT22;11737;50.558;7.258;2022-12-07T07:16:45;7.90;99.90
23137;DHT22;11737;50.558;7.258;2022-12-07T07:19:13;7.80;99.90
23137;DHT22;11737;50.558;7.258;2022-12-07T07:21:40;7.80;99.90
23137;DHT22;11737;50.558;7.258;2022-12-07T07:24:08;7.80;99.90
23137;DHT22;11737;50.558;7.258;2022-12-07T07:26:35;7.80;99.90
23137;DHT22;11737;50.558;7.258;2022-12-07T07:29:03;7.80;99.90
23137;DHT22;11737;50.558;7.258;2022-12-07T07:31:31;7.80;99.90
23137;DHT22;11737;50.558;7.258;2022-12-07T07:34:00;7.90;99.90
23137;DHT22;11737;50.558;7.258;2022-12-07T07:36:27;7.80;99.90
23137;DHT22;11737;50.558;7.258;2022-12-07T07:38:55;7.90;99.90
23137;DHT22;11737;50.558;7.258;2022-12-07T07:41:22;7.90;99.90
23137;DHT22;11737;50.558;7.258;2022-12-07T07:43:50;7.80;99.90
23137;DHT22;11737;50.558;7.258;2022-12-07T07:46:17;7.80;99.90
23137;DHT22;11737;50.558;7.258;2022-12-07T07:48:45;7.80;99.90
23137;DHT22;11737;50.558;7.258;2022-12-07T07:51:13;7.80;99.90
23137;DHT22;11737;50.558;7.258;2022-12-07T07:53:40;7.80;99.90
23137;DHT22;11737;50.558;7.258;2022-12-07T07:56:08;7.70;99.90
23137;DHT22;11737;50.558;7.258;2022-12-07T07:58:35;7.70;99.90
23137;DHT22;11737;50.558;7.258;2022-12-07T08:01:06;7.70;99.90
23137;DHT22;11737;50.558;7.258;2022-12-07T08:03:35;7.60;99.90
23137;DHT22;11737;50.558;7.258;2022-12-07T08:06:03;7.60;99.90
23137;DHT22;11737;50.558;7.258;2022-12-07T08:08:31;7.60;99.90
23137;DHT22;11737;50.558;7.258;2022-12-07T08:10:59;7.60;99.90
23137;DHT22;11737;50.558;7.258;2022-12-07T08:13:47;7.70;99.90
23137;DHT22;11737;50.558;7.258;2022-12-07T08:16:14;7.60;99.90
23137;DHT22;11737;50.558;7.258;2022-12-07T08:18:43;7.60;99.90
23137;DHT22;11737;50.558;7.258;2022-12-07T08:21:14;7.60;99.90
23137;DHT22;11737;50.558;7.258;2022-12-07T08:23:42;7.60;99.90
23137;DHT22;11737;50.558;7.258;2022-12-07T08:28:58;7.50;99.90
23137;DHT22;11737;50.558;7.258;2022-12-07T08:31:26;7.50;99.90
23137;DHT22;11737;50.558;7.258;2022-12-07T08:33:55;7.60;99.90
23137;DHT22;11737;50.558;7.258;2022-12-07T08:36:24;7.80;99.90
23137;DHT22;11737;50.558;7.258;2022-12-07T08:38:51;7.90;99.90
23137;DHT22;11737;50.558;7.258;2022-12-07T08:41:19;7.90;99.90
23137;DHT22;11737;50.558;7.258;2022-12-07T08:43:46;7.90;99.90
23137;DHT22;11737;50.558;7.258;2022-12-07T08:46:22;7.80;99.90
23137;DHT22;11737;50.558;7.258;2022-12-07T08:48:53;7.70;99.90
23137;DHT22;11737;50.558;7.258;2022-12-07T08:51:21;7.60;99.90
23137;DHT22;11737;50.558;7.258;2022-12-07T08:53:51;7.60;99.90
23137;DHT22;11737;50.558;7.258;2022-12-07T08:56:20;7.50;99.90
23137;DHT22;11737;50.558;7.258;2022-12-07T08:58:48;7.60;99.90
23137;DHT22;11737;50.558;7.258;2022-12-07T09:01:16;7.60;99.90
23137;DHT22;11737;50.558;7.258;2022-12-07T09:03:43;7.50;99.90
23137;DHT22;11737;50.558;7.258;2022-12-07T09:06:11;7.60;99.90
23137;DHT22;11737;50.558;7.258;2022-12-07T09:08:45;7.60;99.90
23137;DHT22;11737;50.558;7.258;2022-12-07T09:11:09;7.50;99.90
23137;DHT22;11737;50.558;7.258;2022-12-07T09:13:37;7.60;99.90
23137;DHT22;11737;50.558;7.258;2022-12-07T09:16:04;7.60;99.90
23137;DHT22;11737;50.558;7.258;2022-12-07T09:18:32;7.70;99.90
23137;DHT22;11737;50.558;7.258;2022-12-07T09:21:00;7.80;99.90
23137;DHT22;11737;50.558;7.258;2022-12-07T09:23:27;7.90;99.90
23137;DHT22;11737;50.558;7.258;2022-12-07T09:25:58;7.90;99.90
23137;DHT22;11737;50.558;7.258;2022-12-07T09:28:24;8.00;99.90
23137;DHT22;11737;50.558;7.258;2022-12-07T09:30:51;8.10;99.90
23137;DHT22;11737;50.558;7.258;2022-12-07T09:33:19;8.10;99.90
23137;DHT22;11737;50.558;7.258;2022-12-07T09:35:50;8.10;99.90
23137;DHT22;11737;50.558;7.258;2022-12-07T09:38:19;8.20;99.90
23137;DHT22;11737;50.558;7.258;2022-12-07T09:40:48;8.20;99.90
23137;DHT22;11737;50.558;7.258;2022-12-07T09:46:13;8.30;99.90
23137;DHT22;11737;50.558;7.258;2022-12-07T09:51:29;8.50;99.90
23137;DHT22;11737;50.558;7.258;2022-12-07T09:53:58;8.60;99.90
23137;DHT22;11737;50.558;7.258;2022-12-07T09:56:28;8.70;99.90
23137;DHT22;11737;50.558;7.258;2022-12-07T09:58:59;8.90;99.90
23137;DHT22;11737;50.558;7.258;2022-12-07T10:01:49;9.00;99.90
23137;DHT22;11737;50.558;7.258;2022-12-07T10:07:05;9.00;99.90
23137;DHT22;11737;50.558;7.258;2022-12-07T10:09:32;9.20;99.90
23137;DHT22;11737;50.558;7.258;2022-12-07T10:12:10;9.20;99.90
23137;DHT22;11737;50.558;7.258;2022-12-07T10:14:59;9.10;99.90
23137;DHT22;11737;50.558;7.258;2022-12-07T10:17:48;9.20;99.90
23137;DHT22;11737;50.558;7.258;2022-12-07T10:20:22;9.20;99.90
23137;DHT22;11737;50.558;7.258;2022-12-07T10:23:01;9.30;99.90
23137;DHT22;11737;50.558;7.258;2022-12-07T10:25:34;9.60;99.90
23137;DHT22;11737;50.558;7.258;2022-12-07T10:31:00;9.90;99.90
23137;DHT22;11737;50.558;7.258;2022-12-07T10:34:00;9.80;99.90
23137;DHT22;11737;50.558;7.258;2022-12-07T10:36:37;9.80;99.90
23137;DHT22;11737;50.558;7.258;2022-12-07T10:39:03;9.90;99.90
23137;DHT22;11737;50.558;7.258;2022-12-07T10:41:31;10.00;99.90
23137;DHT22;11737;50.558;7.258;2022-12-07T10:43:58;10.10;99.90
23137;DHT22;11737;50.558;7.258;2022-12-07T11:00:00;10.10;99.90
23137;DHT22;11737;50.558;7.258;2022-12-07T11:02:34;10.10;99.90
23137;DHT22;11737;50.558;7.258;2022-12-07T11:13:54;10.10;99.90
23137;DHT22;11737;50.558;7.258;2022-12-07T11:16:32;10.30;99.90
23137;DHT22;11737;50.558;7.258;2022-12-07T11:35:36;11.00;99.90
23137;DHT22;11737;50.558;7.258;2022-12-07T11:41:01;11.10;99.90
23137;DHT22;11737;50.558;7.258;2022-12-07T11:43:32;11.10;99.90
23137;DHT22;11737;50.558;7.258;2022-12-07T11:46:09;10.70;99.90
23137;DHT22;11737;50.558;7.258;2022-12-07T11:51:16;10.30;99.90
23137;DHT22;11737;50.558;7.258;2022-12-07T11:53:49;10.10;99.90
23137;DHT22;11737;50.558;7.258;2022-12-07T11:56:19;10.00;99.90
23137;DHT22;11737;50.558;7.258;2022-12-07T11:58:55;10.00;99.90
23137;DHT22;11737;50.558;7.258;2022-12-07T12:05:21;9.80;99.90
23137;DHT22;11737;50.558;7.258;2022-12-07T12:07:05;9.80;99.90
23137;DHT22;11737;50.558;7.258;2022-12-07T12:09:36;9.90;99.90
23137;DHT22;11737;50.558;7.258;2022-12-07T12:15:04;9.70;99.90
23137;DHT22;11737;50.558;7.258;2022-12-07T12:18:01;9.50;99.90
23137;DHT22;11737;50.558;7.258;2022-12-07T12:20:45;9.20;99.90
23137;DHT22;11737;50.558;7.258;2022-12-07T12:23:20;9.10;99.90
23137;DHT22;11737;50.558;7.258;2022-12-07T12:25:50;9.00;99.90
23137;DHT22;11737;50.558;7.258;2022-12-07T12:31:16;8.90;99.90
23137;DHT22;11737;50.558;7.258;2022-12-07T12:33:51;8.90;99.90
23137;DHT22;11737;50.558;7.258;2022-12-07T12:39:16;9.00;99.90
23137;DHT22;11737;50.558;7.258;2022-12-07T12:49:41;9.10;99.90
23137;DHT22;11737;50.558;7.258;2022-12-07T12:57:39;9.20;99.90
23137;DHT22;11737;50.558;7.258;2022-12-07T13:00:23;9.30;99.90
23137;DHT22;11737;50.558;7.258;2022-12-07T13:02:58;9.30;99.90
23137;DHT22;11737;50.558;7.258;2022-12-07T13:05:30;9.30;99.90
23137;DHT22;11737;50.558;7.258;2022-12-07T13:08:05;9.40;99.90
23137;DHT22;11737;50.558;7.258;2022-12-07T13:18:38;9.90;99.90
23137;DHT22;11737;50.558;7.258;2022-12-07T13:26:35;10.20;99.90
23137;DHT22;11737;50.558;7.258;2022-12-07T13:29:23;10.20;99.90
23137;DHT22;11737;50.558;7.258;2022-12-07T13:31:53;10.00;99.90
23137;DHT22;11737;50.558;7.258;2022-12-07T13:34:39;10.00;99.90
23137;DHT22;11737;50.558;7.258;2022-12-07T13:37:26;10.10;99.90
23137;DHT22;11737;50.558;7.258;2022-12-07T13:42:45;10.00;99.90
23137;DHT22;11737;50.558;7.258;2022-12-07T13:45:33;10.00;99.90
23137;DHT22;11737;50.558;7.258;2022-12-07T13:49:03;10.00;99.90
23137;DHT22;11737;50.558;7.258;2022-12-07T13:51:04;10.00;99.90
23137;DHT22;11737;50.558;7.258;2022-12-07T13:53:32;9.80;99.90
23137;DHT22;11737;50.558;7.258;2022-12-07T13:56:00;9.40;99.90
23137;DHT22;11737;50.558;7.258;2022-12-07T13:58:30;9.00;99.90
23137;DHT22;11737;50.558;7.258;2022-12-07T14:00:59;8.60;99.90
23137;DHT22;11737;50.558;7.258;2022-12-07T14:03:32;8.40;99.90
23137;DHT22;11737;50.558;7.258;2022-12-07T14:06:13;8.40;99.90
23137;DHT22;11737;50.558;7.258;2022-12-07T14:08:36;8.50;99.90
23137;DHT22;11737;50.558;7.258;2022-12-07T14:11:04;8.50;99.90
23137;DHT22;11737;50.558;7.258;2022-12-07T14:13:36;8.50;99.90
23137;DHT22;11737;50.558;7.258;2022-12-07T14:18:50;8.60;99.90
23137;DHT22;11737;50.558;7.258;2022-12-07T14:21:20;8.70;99.90
23137;DHT22;11737;50.558;7.258;2022-12-07T14:24:08;8.70;99.90
23137;DHT22;11737;50.558;7.258;2022-12-07T14:26:38;8.70;99.90
23137;DHT22;11737;50.558;7.258;2022-12-07T14:31:56;8.60;99.90
23137;DHT22;11737;50.558;7.258;2022-12-07T14:34:25;8.50;99.90
23137;DHT22;11737;50.558;7.258;2022-12-07T14:36:52;8.40;99.90
23137;DHT22;11737;50.558;7.258;2022-12-07T14:39:20;8.40;99.90
23137;DHT22;11737;50.558;7.258;2022-12-07T14:41:47;8.30;99.90
23137;DHT22;11737;50.558;7.258;2022-12-07T14:44:23;8.30;99.90
23137;DHT22;11737;50.558;7.258;2022-12-07T14:46:51;8.20;99.90
23137;DHT22;11737;50.558;7.258;2022-12-07T14:49:18;8.40;99.90
23137;DHT22;11737;50.558;7.258;2022-12-07T14:51:46;8.30;99.90
23137;DHT22;11737;50.558;7.258;2022-12-07T14:54:19;8.40;99.90
23137;DHT22;11737;50.558;7.258;2022-12-07T14:56:47;8.40;99.90
23137;DHT22;11737;50.558;7.258;2022-12-07T14:59:18;8.30;99.90
23137;DHT22;11737;50.558;7.258;2022-12-07T15:01:46;8.30;99.90
23137;DHT22;11737;50.558;7.258;2022-12-07T15:04:13;8.30;99.90
23137;DHT22;11737;50.558;7.258;2022-12-07T15:06:41;8.40;99.90
23137;DHT22;11737;50.558;7.258;2022-12-07T15:09:11;8.40;99.90
23137;DHT22;11737;50.558;7.258;2022-12-07T15:11:39;8.30;99.90
23137;DHT22;11737;50.558;7.258;2022-12-07T15:14:07;8.30;99.90
23137;DHT22;11737;50.558;7.258;2022-12-07T15:16:36;8.30;99.90
23137;DHT22;11737;50.558;7.258;2022-12-07T15:19:13;8.20;99.90
23137;DHT22;11737;50.558;7.258;2022-12-07T15:21:42;8.10;99.90
23137;DHT22;11737;50.558;7.258;2022-12-07T15:24:11;8.00;99.90
23137;DHT22;11737;50.558;7.258;2022-12-07T15:26:39;7.90;99.90
23137;DHT22;11737;50.558;7.258;2022-12-07T15:29:08;7.90;99.90
23137;DHT22;11737;50.558;7.258;2022-12-07T15:31:36;7.80;99.90
23137;DHT22;11737;50.558;7.258;2022-12-07T15:34:04;7.80;99.90
23137;DHT22;11737;50.558;7.258;2022-12-07T15:36:33;7.70;99.90
23137;DHT22;11737;50.558;7.258;2022-12-07T15:39:01;7.70;99.90
23137;DHT22;11737;50.558;7.258;2022-12-07T15:41:28;7.60;99.90
23137;DHT22;11737;50.558;7.258;2022-12-07T15:43:56;7.60;99.90
23137;DHT22;11737;50.558;7.258;2022-12-07T15:46:42;7.60;99.90
23137;DHT22;11737;50.558;7.258;2022-12-07T15:49:12;7.50;99.90
23137;DHT22;11737;50.558;7.258;2022-12-07T15:51:41;7.50;99.90
23137;DHT22;11737;50.558;7.258;2022-12-07T15:54:28;7.50;99.90
23137;DHT22;11737;50.558;7.258;2022-12-07T15:59:44;7.40;99.90
23137;DHT22;11737;50.558;7.258;2022-12-07T16:02:12;7.40;99.90
23137;DHT22;11737;50.558;7.258;2022-12-07T16:04:39;7.40;99.90
23137;DHT22;11737;50.558;7.258;2022-12-07T16:07:07;7.30;99.90
23137;DHT22;11737;50.558;7.258;2022-12-07T16:09:35;7.30;99.90
23137;DHT22;11737;50.558;7.258;2022-12-07T16:12:02;7.30;99.90
23137;DHT22;11737;50.558;7.258;2022-12-07T16:14:30;7.20;99.90
23137;DHT22;11737;50.558;7.258;2022-12-07T16:16:59;7.20;99.90
23137;DHT22;11737;50.558;7.258;2022-12-07T16:19:26;7.20;99.90
23137;DHT22;11737;50.558;7.258;2022-12-07T16:22:13;7.10;99.90
23137;DHT22;11737;50.558;7.258;2022-12-07T16:24:41;7.10;99.90
23137;DHT22;11737;50.558;7.258;2022-12-07T16:27:08;7.10;99.90
23137;DHT22;11737;50.558;7.258;2022-12-07T16:29:36;7.10;99.90
23137;DHT22;11737;50.558;7.258;2022-12-07T16:32:03;7.10;99.90
23137;DHT22;11737;50.558;7.258;2022-12-07T16:34:31;7.20;99.90
23137;DHT22;11737;50.558;7.258;2022-12-07T16:36:59;7.20;99.90
23137;DHT22;11737;50.558;7.258;2022-12-07T16:39:26;7.20;99.90
23137;DHT22;11737;50.558;7.258;2022-12-07T16:41:54;7.20;99.90
23137;DHT22;11737;50.558;7.258;2022-12-07T16:44:21;7.10;99.90
23137;DHT22;11737;50.558;7.258;2022-12-07T16:46:49;7.20;99.90
23137;DHT22;11737;50.558;7.258;2022-12-07T16:49:17;7.20;99.90
23137;DHT22;11737;50.558;7.258;2022-12-07T16:54:34;7.30;99.90
23137;DHT22;11737;50.558;7.258;2022-12-07T16:57:01;7.30;99.90
23137;DHT22;11737;50.558;7.258;2022-12-07T16:59:29;7.20;99.90
23137;DHT22;11737;50.558;7.258;2022-12-07T17:01:56;7.10;99.90
23137;DHT22;11737;50.558;7.258;2022-12-07T17:04:24;7.10;99.90
23137;DHT22;11737;50.558;7.258;2022-12-07T17:06:51;7.10;99.90
23137;DHT22;11737;50.558;7.258;2022-12-07T17:09:19;7.00;99.90
23137;DHT22;11737;50.558;7.258;2022-12-07T17:11:46;7.00;99.90
23137;DHT22;11737;50.558;7.258;2022-12-07T17:14:14;7.00;99.90
23137;DHT22;11737;50.558;7.258;2022-12-07T17:16:59;7.10;99.90
23137;DHT22;11737;50.558;7.258;2022-12-07T17:19:27;7.00;99.90
23137;DHT22;11737;50.558;7.258;2022-12-07T17:21:55;7.00;99.90
23137;DHT22;11737;50.558;7.258;2022-12-07T17:24:22;7.00;99.90
23137;DHT22;11737;50.558;7.258;2022-12-07T17:26:50;7.00;99.90
23137;DHT22;11737;50.558;7.258;2022-12-07T17:29:18;7.00;99.90
23137;DHT22;11737;50.558;7.258;2022-12-07T17:31:47;7.00;99.90
23137;DHT22;11737;50.558;7.258;2022-12-07T17:34:15;7.00;99.90
23137;DHT22;11737;50.558;7.258;2022-12-07T17:36:43;6.90;99.90
23137;DHT22;11737;50.558;7.258;2022-12-07T17:39:14;6.90;99.90
23137;DHT22;11737;50.558;7.258;2022-12-07T17:41:42;6.80;99.90
23137;DHT22;11737;50.558;7.258;2022-12-07T17:44:28;6.70;99.90
23137;DHT22;11737;50.558;7.258;2022-12-07T17:46:56;6.70;99.90
23137;DHT22;11737;50.558;7.258;2022-12-07T17:49:25;6.80;99.90
23137;DHT22;11737;50.558;7.258;2022-12-07T17:51:53;6.80;99.90
23137;DHT22;11737;50.558;7.258;2022-12-07T17:54:39;6.90;99.90
23137;DHT22;11737;50.558;7.258;2022-12-07T17:57:06;6.80;99.90
23137;DHT22;11737;50.558;7.258;2022-12-07T17:59:34;6.80;99.90
23137;DHT22;11737;50.558;7.258;2022-12-07T18:02:02;6.70;99.90
23137;DHT22;11737;50.558;7.258;2022-12-07T18:04:29;6.70;99.90
23137;DHT22;11737;50.558;7.258;2022-12-07T18:06:57;6.70;99.90
23137;DHT22;11737;50.558;7.258;2022-12-07T18:09:24;6.60;99.90
23137;DHT22;11737;50.558;7.258;2022-12-07T18:11:52;6.50;99.90
23137;DHT22;11737;50.558;7.258;2022-12-07T18:14:20;6.60;99.90
23137;DHT22;11737;50.558;7.258;2022-12-07T18:16:47;6.60;99.90
23137;DHT22;11737;50.558;7.258;2022-12-07T18:19:18;6.60;99.90
23137;DHT22;11737;50.558;7.258;2022-12-07T18:21:45;6.50;99.90
23137;DHT22;11737;50.558;7.258;2022-12-07T18:24:15;6.60;99.90
23137;DHT22;11737;50.558;7.258;2022-12-07T18:26:44;6.70;99.90
23137;DHT22;11737;50.558;7.258;2022-12-07T18:29:15;6.60;99.90
23137;DHT22;11737;50.558;7.258;2022-12-07T18:31:44;6.60;99.90
23137;DHT22;11737;50.558;7.258;2022-12-07T18:34:15;6.60;99.90
23137;DHT22;11737;50.558;7.258;2022-12-07T18:36:45;6.60;99.90
23137;DHT22;11737;50.558;7.258;2022-12-07T18:39:14;6.60;99.90
23137;DHT22;11737;50.558;7.258;2022-12-07T18:41:43;6.50;99.90
23137;DHT22;11737;50.558;7.258;2022-12-07T18:44:11;6.50;99.90
23137;DHT22;11737;50.558;7.258;2022-12-07T18:46:42;6.40;99.90
23137;DHT22;11737;50.558;7.258;2022-12-07T18:49:13;6.40;99.90